Time;durP1;ratioP1;P1;durP2;ratioP2;P2;SDS_P1;SDS_P2;PMS_P1;PMS_P2;Temp;Humidity;BMP_temperature;BMP_pressure;BME280_temperature;BME280_humidity;BME280_pressure;Samples;Min_cycle;Max_cycle;Signal;HPM_P1;HPM_P2
2022/06/12 00:01:15;;;;;;;;;;;23.40;49.00;;;;;;4880622;29;19916;-64
2022/06/12 00:03:41;;;;;;;;;;;23.40;48.80;;;;;;4880586;29;19919;-64
2022/06/12 00:06:07;;;;;;;;;;;23.40;48.80;;;;;;4880644;29;19919;-64
2022/06/12 00:08:33;;;;;;;;;;;23.30;49.20;;;;;;4880465;29;19911;-63
2022/06/12 00:11:00;;;;;;;;;;;23.10;48.90;;;;;;4880280;29;19927;-63
2022/06/12 00:13:29;;;;;;;;;;;23.00;49.40;;;;;;4863721;29;19926;-64
2022/06/12 00:15:55;;;;;;;;;;;23.10;49.10;;;;;;4880406;29;20374;-63
2022/06/12 00:18:21;;;;;;;;;;;23.10;49.20;;;;;;4880244;29;19912;-64
2022/06/12 00:20:47;;;;;;;;;;;23.20;49.60;;;;;;4880125;29;19939;-63
2022/06/12 00:23:14;;;;;;;;;;;23.20;49.40;;;;;;4880349;29;20360;-63
2022/06/12 00:25:40;;;;;;;;;;;23.20;49.10;;;;;;4880343;29;20023;-63
2022/06/12 00:28:06;;;;;;;;;;;23.20;49.10;;;;;;4880140;29;19912;-62
2022/06/12 00:30:32;;;;;;;;;;;23.20;49.30;;;;;;4879974;29;19945;-62
2022/06/12 00:32:57;;;;;;;;;;;23.30;48.50;;;;;;4880127;29;19959;-61
2022/06/12 00:35:25;;;;;;;;;;;23.30;48.70;;;;;;4880222;29;19911;-63
2022/06/12 00:37:51;;;;;;;;;;;23.40;48.70;;;;;;4880027;29;19912;-63
2022/06/12 00:40:17;;;;;;;;;;;23.30;48.60;;;;;;4879853;29;20138;-62
2022/06/12 00:42:45;;;;;;;;;;;23.40;48.50;;;;;;4879812;29;19999;-64
2022/06/12 00:45:28;;;;;;;;;;;23.50;48.80;;;;;;4880161;29;19919;-62
2022/06/12 00:47:55;;;;;;;;;;;23.50;48.60;;;;;;4879918;29;19919;-64
2022/06/12 00:50:21;;;;;;;;;;;23.40;48.20;;;;;;4879598;29;19911;-63
2022/06/12 00:52:49;;;;;;;;;;;23.50;48.30;;;;;;4880072;29;19938;-63
2022/06/12 00:55:24;;;;;;;;;;;23.50;48.00;;;;;;4879987;29;19916;-63
2022/06/12 00:57:50;;;;;;;;;;;23.20;49.00;;;;;;4880002;29;19912;-64
2022/06/12 01:00:16;;;;;;;;;;;22.90;50.00;;;;;;4879847;29;20015;-62
2022/06/12 01:02:42;;;;;;;;;;;22.80;50.80;;;;;;4879629;29;19951;-62
2022/06/12 01:07:55;;;;;;;;;;;23.00;49.90;;;;;;4880280;29;19918;-64
2022/06/12 01:10:23;;;;;;;;;;;23.10;50.10;;;;;;4879740;29;19912;-63
2022/06/12 01:12:57;;;;;;;;;;;23.20;50.10;;;;;;4879541;29;20368;-62
2022/06/12 01:15:35;;;;;;;;;;;23.20;49.80;;;;;;4879596;29;19912;-63
2022/06/12 01:18:01;;;;;;;;;;;23.20;50.00;;;;;;4862905;29;20357;-64
2022/06/12 01:20:31;;;;;;;;;;;23.20;50.10;;;;;;4879422;29;19919;-63
2022/06/12 01:23:12;;;;;;;;;;;23.10;50.40;;;;;;4879657;29;19918;-64
2022/06/12 01:25:50;;;;;;;;;;;23.00;50.70;;;;;;4879576;29;19915;-64
2022/06/12 01:28:34;;;;;;;;;;;23.00;50.90;;;;;;4879544;29;19939;-65
2022/06/12 01:31:18;;;;;;;;;;;23.10;50.50;;;;;;4879734;29;19919;-63
2022/06/12 01:33:50;;;;;;;;;;;23.10;49.60;;;;;;4879737;29;20329;-65
2022/06/12 01:36:31;;;;;;;;;;;23.20;49.90;;;;;;4879516;29;19939;-67
2022/06/12 01:39:20;;;;;;;;;;;23.30;49.60;;;;;;4879631;29;19912;-63
2022/06/12 01:41:48;;;;;;;;;;;23.30;49.40;;;;;;4879515;29;19953;-63
2022/06/12 01:44:18;;;;;;;;;;;23.30;49.50;;;;;;4879548;29;19959;-63
2022/06/12 01:46:56;;;;;;;;;;;23.20;49.50;;;;;;4879563;29;19934;-64
2022/06/12 01:49:32;;;;;;;;;;;23.20;49.70;;;;;;4879535;29;20023;-63
2022/06/12 01:52:06;;;;;;;;;;;23.20;49.50;;;;;;4881521;29;19920;-63
2022/06/12 01:54:51;;;;;;;;;;;23.20;49.70;;;;;;4882708;29;19912;-63
2022/06/12 01:57:20;;;;;;;;;;;23.10;50.00;;;;;;4882933;29;19912;-64
2022/06/12 01:59:51;;;;;;;;;;;23.10;50.00;;;;;;4882622;29;19916;-63
2022/06/12 02:02:21;;;;;;;;;;;23.00;50.30;;;;;;4882935;29;19912;-63
2022/06/12 02:04:51;;;;;;;;;;;23.10;50.40;;;;;;4883303;29;19922;-67
2022/06/12 02:07:22;;;;;;;;;;;23.00;50.30;;;;;;4882746;29;20257;-63
2022/06/12 02:09:51;;;;;;;;;;;23.00;50.30;;;;;;4882707;29;19912;-63
2022/06/12 02:15:03;;;;;;;;;;;22.90;50.50;;;;;;4883086;29;19960;-63
2022/06/12 02:17:40;;;;;;;;;;;22.90;50.60;;;;;;4882397;29;20376;-62
2022/06/12 02:20:08;;;;;;;;;;;22.90;50.90;;;;;;4882551;29;20007;-63
2022/06/12 02:22:35;;;;;;;;;;;22.90;51.00;;;;;;4882513;29;19969;-63
2022/06/12 02:25:13;;;;;;;;;;;23.00;51.00;;;;;;4882321;29;19912;-63
2022/06/12 02:27:43;;;;;;;;;;;23.00;50.80;;;;;;4882193;29;19951;-63
2022/06/12 02:30:17;;;;;;;;;;;23.00;50.40;;;;;;4865311;29;20368;-63
2022/06/12 02:32:45;;;;;;;;;;;22.90;51.10;;;;;;4865249;29;20310;-64
2022/06/12 02:35:15;;;;;;;;;;;22.90;50.80;;;;;;4882240;29;19919;-63
2022/06/12 02:37:44;;;;;;;;;;;23.00;50.80;;;;;;4882237;29;19911;-63
2022/06/12 02:40:14;;;;;;;;;;;23.10;50.50;;;;;;4882078;29;19911;-63
2022/06/12 02:42:42;;;;;;;;;;;23.10;50.40;;;;;;4881981;29;20449;-63
2022/06/12 02:45:10;;;;;;;;;;;23.10;50.40;;;;;;4881762;29;19911;-64
2022/06/12 02:47:37;;;;;;;;;;;23.10;50.40;;;;;;4882039;29;19971;-63
2022/06/12 02:50:03;;;;;;;;;;;23.00;50.30;;;;;;4881692;29;19915;-63
2022/06/12 02:52:29;;;;;;;;;;;23.10;50.60;;;;;;4881733;29;19920;-62
2022/06/12 02:55:30;;;;;;;;;;;23.10;50.40;;;;;;4881633;29;20288;-63
2022/06/12 02:58:04;;;;;;;;;;;23.00;50.40;;;;;;4806097;29;20019;-62
2022/06/12 03:00:35;;;;;;;;;;;23.10;50.60;;;;;;4870029;29;20399;-65
2022/06/12 03:03:06;;;;;;;;;;;23.00;50.40;;;;;;4881539;29;19912;-62
2022/06/12 03:05:35;;;;;;;;;;;23.00;50.50;;;;;;4881649;29;20066;-63
2022/06/12 03:08:06;;;;;;;;;;;23.00;50.40;;;;;;4881637;29;19919;-63
2022/06/12 03:10:33;;;;;;;;;;;23.10;50.40;;;;;;4881360;29;19920;-63
2022/06/12 03:13:03;;;;;;;;;;;23.00;50.50;;;;;;4881087;29;19924;-63
2022/06/12 03:15:50;;;;;;;;;;;23.00;50.70;;;;;;4881533;29;20019;-63
2022/06/12 03:18:19;;;;;;;;;;;23.00;50.50;;;;;;4881192;29;19920;-62
2022/06/12 03:20:52;;;;;;;;;;;22.90;50.50;;;;;;4881114;29;19912;-63
2022/06/12 03:23:28;;;;;;;;;;;22.90;50.60;;;;;;4881158;29;19912;-63
2022/06/12 03:25:56;;;;;;;;;;;22.90;50.90;;;;;;4881056;29;20052;-63
2022/06/12 03:28:25;;;;;;;;;;;22.90;50.60;;;;;;4880965;29;19912;-62
2022/06/12 03:31:10;;;;;;;;;;;23.00;50.60;;;;;;4880979;29;20015;-63
2022/06/12 03:33:57;;;;;;;;;;;23.00;50.40;;;;;;4880394;29;19912;-63
2022/06/12 03:36:31;;;;;;;;;;;23.00;50.40;;;;;;4863966;29;19998;-62
2022/06/12 03:39:16;;;;;;;;;;;23.00;50.50;;;;;;4880614;29;19918;-61
2022/06/12 03:41:54;;;;;;;;;;;23.00;50.40;;;;;;4881199;29;19967;-62
2022/06/12 03:44:22;;;;;;;;;;;23.00;50.30;;;;;;4880887;29;19916;-64
2022/06/12 03:47:04;;;;;;;;;;;22.90;50.30;;;;;;4880780;29;19911;-64
2022/06/12 03:49:30;;;;;;;;;;;23.00;50.30;;;;;;4880582;29;20305;-64
2022/06/12 03:52:12;;;;;;;;;;;23.10;49.70;;;;;;4880669;29;19927;-64
2022/06/12 03:54:51;;;;;;;;;;;23.10;49.20;;;;;;4880725;29;19911;-64
2022/06/12 04:00:29;;;;;;;;;;;23.00;49.50;;;;;;4880743;29;19919;-63
2022/06/12 04:02:57;;;;;;;;;;;23.10;49.60;;;;;;4880653;29;19911;-62
2022/06/12 04:05:26;;;;;;;;;;;23.10;49.40;;;;;;4880600;29;20368;-63
2022/06/12 04:07:53;;;;;;;;;;;23.10;49.20;;;;;;4880713;29;20391;-62
2022/06/12 04:10:19;;;;;;;;;;;23.10;49.20;;;;;;4880228;29;19912;-64
2022/06/12 04:12:46;;;;;;;;;;;23.10;49.30;;;;;;4880170;29;20411;-62
2022/06/12 04:15:22;;;;;;;;;;;23.10;49.30;;;;;;4879946;29;19919;-63
2022/06/12 04:17:48;;;;;;;;;;;23.10;49.20;;;;;;4880561;29;19918;-64
2022/06/12 04:20:19;;;;;;;;;;;23.10;49.30;;;;;;4880125;29;20353;-63
2022/06/12 04:22:46;;;;;;;;;;;23.10;49.20;;;;;;4880407;29;19918;-64
2022/06/12 04:25:31;;;;;;;;;;;23.20;49.90;;;;;;4880183;29;19919;-64
2022/06/12 04:27:57;;;;;;;;;;;23.00;49.00;;;;;;4879493;29;19912;-64
2022/06/12 04:30:28;;;;;;;;;;;23.10;49.40;;;;;;4880100;29;20287;-64
2022/06/12 04:33:02;;;;;;;;;;;23.00;49.60;;;;;;4879935;29;19927;-64
2022/06/12 04:35:28;;;;;;;;;;;22.90;49.20;;;;;;4880226;29;19919;-64
2022/06/12 04:37:53;;;;;;;;;;;22.90;49.50;;;;;;4880237;29;19912;-68
2022/06/12 04:40:24;;;;;;;;;;;23.00;49.90;;;;;;4879876;29;19912;-64
2022/06/12 04:42:50;;;;;;;;;;;23.00;49.80;;;;;;4879977;29;19974;-62
2022/06/12 04:45:15;;;;;;;;;;;22.90;49.70;;;;;;4879958;29;20404;-62
2022/06/12 04:47:41;;;;;;;;;;;23.00;49.60;;;;;;4880129;29;19916;-62
2022/06/12 04:50:09;;;;;;;;;;;23.00;49.50;;;;;;4879730;29;19951;-62
2022/06/12 04:52:34;;;;;;;;;;;23.10;49.10;;;;;;4879787;29;19968;-62
2022/06/12 04:55:00;;;;;;;;;;;23.10;48.80;;;;;;4879956;29;19911;-62
2022/06/12 04:57:25;;;;;;;;;;;23.20;49.00;;;;;;4879972;29;20023;-62
2022/06/12 04:59:53;;;;;;;;;;;23.30;48.80;;;;;;4879686;29;20356;-64
2022/06/12 05:02:19;;;;;;;;;;;23.30;48.90;;;;;;4879877;29;20375;-64
2022/06/12 05:04:44;;;;;;;;;;;23.30;49.00;;;;;;4879924;29;19912;-70
2022/06/12 05:07:11;;;;;;;;;;;23.20;49.20;;;;;;4879788;29;19974;-64
2022/06/12 05:09:39;;;;;;;;;;;23.20;49.10;;;;;;4879768;29;19911;-64
2022/06/12 05:12:06;;;;;;;;;;;23.30;49.40;;;;;;4879789;29;19924;-64
2022/06/12 05:14:31;;;;;;;;;;;23.20;49.20;;;;;;4879788;29;19919;-65
2022/06/12 05:17:02;;;;;;;;;;;23.30;49.90;;;;;;4879676;29;20284;-70
2022/06/12 05:19:30;;;;;;;;;;;23.30;49.60;;;;;;4879416;29;19960;-63
2022/06/12 05:21:55;;;;;;;;;;;23.40;49.50;;;;;;4879817;29;19980;-64
2022/06/12 05:24:21;;;;;;;;;;;23.40;49.50;;;;;;4879530;29;19912;-64
2022/06/12 05:26:48;;;;;;;;;;;23.40;49.60;;;;;;4881803;29;19919;-63
2022/06/12 05:29:17;;;;;;;;;;;23.40;49.60;;;;;;4883052;29;19912;-63
2022/06/12 05:31:44;;;;;;;;;;;23.40;49.50;;;;;;4883083;29;19926;-63
2022/06/12 05:34:09;;;;;;;;;;;23.40;49.20;;;;;;4883037;29;19919;-64
2022/06/12 05:36:35;;;;;;;;;;;23.60;49.30;;;;;;4883121;29;19915;-65
2022/06/12 05:39:01;;;;;;;;;;;24.00;48.40;;;;;;4882931;29;19919;-64
2022/06/12 05:41:26;;;;;;;;;;;24.30;47.70;;;;;;4883063;29;20131;-64
2022/06/12 05:43:52;;;;;;;;;;;24.60;47.50;;;;;;4882759;29;19912;-63
2022/06/12 05:46:17;;;;;;;;;;;25.00;45.90;;;;;;4882906;29;19919;-63
2022/06/12 05:48:43;;;;;;;;;;;25.30;45.50;;;;;;4882914;29;19919;-63
2022/06/12 05:51:11;;;;;;;;;;;25.50;44.40;;;;;;4883256;29;19920;-64
2022/06/12 05:53:37;;;;;;;;;;;25.80;43.90;;;;;;4882957;29;19999;-63
2022/06/12 05:56:07;;;;;;;;;;;26.00;43.40;;;;;;4866161;29;20004;-64
2022/06/12 05:58:34;;;;;;;;;;;25.90;42.90;;;;;;4882695;29;19912;-65
2022/06/12 06:01:00;;;;;;;;;;;26.00;43.10;;;;;;4882894;29;19916;-66
2022/06/12 06:03:26;;;;;;;;;;;26.00;42.40;;;;;;4882621;29;19938;-62
2022/06/12 06:05:51;;;;;;;;;;;26.20;42.70;;;;;;4882827;29;19934;-68
2022/06/12 06:08:17;;;;;;;;;;;26.50;43.10;;;;;;4882453;29;20339;-64
2022/06/12 06:10:43;;;;;;;;;;;26.90;41.90;;;;;;4882550;29;19920;-67
2022/06/12 06:13:09;;;;;;;;;;;27.40;41.00;;;;;;4882916;29;19946;-69
2022/06/12 06:15:35;;;;;;;;;;;27.80;40.50;;;;;;4882530;29;19956;-62
2022/06/12 06:18:01;;;;;;;;;;;28.20;41.50;;;;;;4882427;29;20333;-67
2022/06/12 06:20:28;;;;;;;;;;;28.50;40.10;;;;;;4882645;29;20006;-66
2022/06/12 06:22:54;;;;;;;;;;;28.70;39.70;;;;;;4896826;29;20384;-65
2022/06/12 06:25:21;;;;;;;;;;;28.90;39.80;;;;;;4882324;29;19912;-66
2022/06/12 06:27:46;;;;;;;;;;;29.00;39.90;;;;;;4882140;29;19919;-66
2022/06/12 06:30:13;;;;;;;;;;;29.10;40.30;;;;;;4881983;29;19919;-64
2022/06/12 06:32:38;;;;;;;;;;;29.20;40.40;;;;;;4882166;29;19927;-67
2022/06/12 06:35:04;;;;;;;;;;;29.40;40.10;;;;;;4881611;29;19912;-65
2022/06/12 06:37:31;;;;;;;;;;;29.50;40.90;;;;;;4881495;29;20428;-70
2022/06/12 06:39:56;;;;;;;;;;;29.50;39.50;;;;;;4881795;29;19912;-71
2022/06/12 06:42:23;;;;;;;;;;;29.60;39.30;;;;;;4882090;29;19975;-66
2022/06/12 06:47:33;;;;;;;;;;;29.70;38.30;;;;;;4881583;29;19923;-66
2022/06/12 06:49:59;;;;;;;;;;;29.90;38.40;;;;;;4881134;29;19919;-67
2022/06/12 06:52:24;;;;;;;;;;;29.90;38.00;;;;;;4881257;29;19984;-73
2022/06/12 06:54:50;;;;;;;;;;;30.10;36.60;;;;;;4881158;29;19919;-75
2022/06/12 06:57:15;;;;;;;;;;;30.10;36.30;;;;;;4881170;29;19915;-73
2022/06/12 06:59:41;;;;;;;;;;;29.80;33.00;;;;;;4881578;29;19958;-74
2022/06/12 07:02:07;;;;;;;;;;;29.80;33.90;;;;;;4880196;29;19918;-74
2022/06/12 07:04:33;;;;;;;;;;;29.90;34.30;;;;;;4881767;29;19911;-70
2022/06/12 07:06:58;;;;;;;;;;;30.00;37.10;;;;;;4881437;29;19984;-70
2022/06/12 07:09:24;;;;;;;;;;;30.10;37.10;;;;;;4881410;29;20420;-70
2022/06/12 07:11:50;;;;;;;;;;;30.10;36.90;;;;;;4881484;29;19923;-69
2022/06/12 07:14:15;;;;;;;;;;;30.10;37.20;;;;;;4881648;29;20384;-68
2022/06/12 07:16:41;;;;;;;;;;;30.20;37.60;;;;;;4883685;29;19912;-70
2022/06/12 07:19:07;;;;;;;;;;;30.20;37.00;;;;;;4884941;29;19919;-71
2022/06/12 07:21:32;;;;;;;;;;;30.30;35.50;;;;;;4878880;29;19923;-73
2022/06/12 07:23:58;;;;;;;;;;;30.30;35.20;;;;;;4882841;29;20007;-75
2022/06/12 07:26:25;;;;;;;;;;;30.30;34.10;;;;;;4881559;29;19912;-69
2022/06/12 07:28:51;;;;;;;;;;;30.30;33.80;;;;;;4881074;29;20366;-73
2022/06/12 07:31:17;;;;;;;;;;;30.20;32.30;;;;;;4880964;29;19922;-65
2022/06/12 07:33:43;;;;;;;;;;;29.60;31.90;;;;;;4882162;29;19916;-69
2022/06/12 07:36:10;;;;;;;;;;;29.60;32.40;;;;;;4881581;29;19990;-69
2022/06/12 07:38:35;;;;;;;;;;;29.40;32.00;;;;;;4881081;29;19920;-76
2022/06/12 07:41:03;;;;;;;;;;;29.50;31.60;;;;;;4881683;29;19946;-76
2022/06/12 07:43:30;;;;;;;;;;;29.40;31.50;;;;;;4881156;29;19912;-69
2022/06/12 07:45:56;;;;;;;;;;;29.60;31.80;;;;;;4883898;29;20291;-69
2022/06/12 07:48:22;;;;;;;;;;;29.60;31.60;;;;;;4885120;29;19976;-66
2022/06/12 07:50:48;;;;;;;;;;;29.60;31.30;;;;;;4880759;29;19912;-66
2022/06/12 07:53:14;;;;;;;;;;;29.50;31.30;;;;;;4868737;29;19938;-66
2022/06/12 07:55:40;;;;;;;;;;;29.40;31.10;;;;;;4871582;29;19959;-61
2022/06/12 07:58:06;;;;;;;;;;;29.40;31.70;;;;;;4871009;29;19920;-68
2022/06/12 08:00:31;;;;;;;;;;;29.50;32.00;;;;;;4869661;29;19920;-67
2022/06/12 08:02:57;;;;;;;;;;;29.70;32.00;;;;;;4874920;29;19911;-68
2022/06/12 08:05:23;;;;;;;;;;;29.80;31.60;;;;;;4880011;29;19916;-62
2022/06/12 08:07:48;;;;;;;;;;;29.90;30.40;;;;;;4879415;29;20292;-62
2022/06/12 08:10:14;;;;;;;;;;;29.90;30.70;;;;;;4878411;29;19958;-62
2022/06/12 08:12:41;;;;;;;;;;;29.80;30.20;;;;;;4878708;29;19931;-61
2022/06/12 08:15:10;;;;;;;;;;;29.80;29.80;;;;;;4867764;29;20464;-61
2022/06/12 08:17:36;;;;;;;;;;;29.60;30.10;;;;;;4860906;29;19917;-61
2022/06/12 08:22:46;;;;;;;;;;;29.80;31.10;;;;;;4861960;29;19923;-61
2022/06/12 08:25:12;;;;;;;;;;;29.90;30.70;;;;;;4861649;29;19913;-61
2022/06/12 08:27:37;;;;;;;;;;;30.00;30.90;;;;;;4861315;29;20007;-61
2022/06/12 08:30:04;;;;;;;;;;;30.00;31.60;;;;;;4863657;29;20014;-61
2022/06/12 08:32:29;;;;;;;;;;;30.00;30.80;;;;;;4870390;29;19920;-62
2022/06/12 08:34:57;;;;;;;;;;;30.00;33.10;;;;;;4869087;29;19916;-61
2022/06/12 08:37:28;;;;;;;;;;;29.90;34.90;;;;;;4870726;29;19912;-61
2022/06/12 08:39:53;;;;;;;;;;;29.70;38.10;;;;;;4871040;29;19912;-62
2022/06/12 08:42:19;;;;;;;;;;;29.40;38.70;;;;;;4868928;29;19912;-63
2022/06/12 08:44:44;;;;;;;;;;;29.20;38.70;;;;;;4870443;29;19915;-64
2022/06/12 08:47:20;;;;;;;;;;;29.10;39.00;;;;;;4870032;29;19919;-60
2022/06/12 08:50:21;;;;;;;;;;;29.10;39.70;;;;;;4879176;29;19923;-65
2022/06/12 08:52:52;;;;;;;;;;;29.10;40.50;;;;;;4803571;29;19925;-62
2022/06/12 08:55:36;;;;;;;;;;;29.10;39.50;;;;;;4866177;29;20411;-61
2022/06/12 08:58:08;;;;;;;;;;;29.10;39.90;;;;;;4879056;29;19918;-65
2022/06/12 09:00:38;;;;;;;;;;;29.10;39.60;;;;;;4881017;29;20353;-64
2022/06/12 09:03:04;;;;;;;;;;;29.10;39.10;;;;;;4878075;29;19912;-62
2022/06/12 09:05:53;;;;;;;;;;;29.10;38.70;;;;;;4882844;29;19965;-63
2022/06/12 09:08:19;;;;;;;;;;;29.10;38.90;;;;;;4874865;29;19920;-62
2022/06/12 09:10:48;;;;;;;;;;;29.10;38.50;;;;;;4882837;29;20335;-62
2022/06/12 09:13:15;;;;;;;;;;;29.10;35.60;;;;;;4872810;29;19935;-63
2022/06/12 09:15:58;;;;;;;;;;;29.20;35.50;;;;;;4874508;29;19999;-67
2022/06/12 09:18:42;;;;;;;;;;;29.10;33.90;;;;;;4889115;29;19912;-63
2022/06/12 09:21:31;;;;;;;;;;;29.00;33.60;;;;;;4933931;23;19927;-61
2022/06/12 09:24:00;;;;;;;;;;;29.00;34.10;;;;;;4929617;29;20271;-62
2022/06/12 09:26:31;;;;;;;;;;;29.00;33.40;;;;;;4939300;29;19934;-60
2022/06/12 09:29:05;;;;;;;;;;;29.00;34.00;;;;;;4934369;29;20425;-61
2022/06/12 09:31:54;;;;;;;;;;;29.10;34.50;;;;;;4929264;29;20398;-61
2022/06/12 09:34:26;;;;;;;;;;;29.10;34.00;;;;;;4930574;29;19922;-61
2022/06/12 09:37:00;;;;;;;;;;;29.10;34.90;;;;;;4923242;29;19918;-61
2022/06/12 09:39:42;;;;;;;;;;;29.00;34.20;;;;;;4925355;29;20027;-61
2022/06/12 09:42:18;;;;;;;;;;;29.00;35.40;;;;;;4930713;29;20334;-61
2022/06/12 09:44:43;;;;;;;;;;;29.00;35.60;;;;;;4930555;29;19921;-63
2022/06/12 09:47:16;;;;;;;;;;;29.00;35.60;;;;;;4934121;29;19918;-60
2022/06/12 09:49:44;;;;;;;;;;;29.00;36.00;;;;;;4939272;29;19915;-61
2022/06/12 09:52:30;;;;;;;;;;;28.90;36.30;;;;;;4939363;29;19926;-60
2022/06/12 09:54:55;;;;;;;;;;;28.80;37.60;;;;;;4939201;29;19910;-59
2022/06/12 09:57:29;;;;;;;;;;;28.70;38.10;;;;;;4939418;29;19965;-61
2022/06/12 09:59:54;;;;;;;;;;;28.70;38.80;;;;;;4938940;29;20279;-60
2022/06/12 10:02:25;;;;;;;;;;;28.70;38.20;;;;;;4939387;29;19911;-60
2022/06/12 10:04:54;;;;;;;;;;;28.50;38.10;;;;;;4939439;29;19911;-62
2022/06/12 10:07:26;;;;;;;;;;;28.40;38.80;;;;;;4939924;29;20293;-64
2022/06/12 10:09:56;;;;;;;;;;;28.30;40.00;;;;;;4941994;29;19910;-61
2022/06/12 10:12:26;;;;;;;;;;;28.20;40.60;;;;;;4940885;29;20401;-60
2022/06/12 10:14:54;;;;;;;;;;;28.30;40.80;;;;;;4939506;29;20379;-59
2022/06/12 10:17:30;;;;;;;;;;;28.20;41.60;;;;;;4939257;29;19962;-62
2022/06/12 10:20:18;;;;;;;;;;;28.20;41.10;;;;;;4938839;29;19921;-62
2022/06/12 10:22:45;;;;;;;;;;;28.20;42.10;;;;;;4938831;29;20061;-61
2022/06/12 10:25:22;;;;;;;;;;;28.20;41.70;;;;;;4938927;29;19911;-60
2022/06/12 10:27:51;;;;;;;;;;;28.30;41.90;;;;;;4938688;29;19955;-61
2022/06/12 10:30:25;;;;;;;;;;;28.20;41.80;;;;;;4938800;29;19911;-60
2022/06/12 10:32:52;;;;;;;;;;;28.20;42.50;;;;;;4938493;29;19919;-60
2022/06/12 10:35:20;;;;;;;;;;;28.10;42.60;;;;;;4938800;29;20331;-60
2022/06/12 10:37:45;;;;;;;;;;;28.10;42.20;;;;;;4937209;29;19914;-60
2022/06/12 10:40:21;;;;;;;;;;;28.00;41.70;;;;;;4938426;29;19918;-60
2022/06/12 10:43:08;;;;;;;;;;;28.00;42.80;;;;;;4938589;29;20287;-59
2022/06/12 10:45:36;;;;;;;;;;;28.00;42.90;;;;;;4938654;29;20009;-60
2022/06/12 10:48:21;;;;;;;;;;;28.00;43.90;;;;;;4938202;29;19994;-62
2022/06/12 10:51:13;;;;;;;;;;;28.00;44.00;;;;;;4938502;29;19984;-62
2022/06/12 10:53:40;;;;;;;;;;;28.10;43.40;;;;;;4916147;29;19968;-62
2022/06/12 10:56:14;;;;;;;;;;;28.10;43.70;;;;;;4937255;29;20001;-61
2022/06/12 10:58:40;;;;;;;;;;;28.10;43.60;;;;;;4938272;29;19918;-61
2022/06/12 11:01:25;;;;;;;;;;;28.10;43.40;;;;;;4938618;29;19911;-61
2022/06/12 11:03:50;;;;;;;;;;;28.00;44.30;;;;;;4938110;29;19918;-61
2022/06/12 11:06:20;;;;;;;;;;;28.10;44.70;;;;;;4938302;29;19911;-60
2022/06/12 11:08:46;;;;;;;;;;;28.10;43.80;;;;;;4937950;29;19910;-60
2022/06/12 11:11:11;;;;;;;;;;;28.10;45.00;;;;;;4937922;29;19915;-63
2022/06/12 11:13:52;;;;;;;;;;;28.20;44.90;;;;;;4938262;29;19915;-61
2022/06/12 11:16:47;;;;;;;;;;;28.20;44.80;;;;;;4938133;29;19911;-61
2022/06/12 11:19:13;;;;;;;;;;;28.20;44.00;;;;;;4924830;29;19911;-62
2022/06/12 11:21:54;;;;;;;;;;;28.20;44.80;;;;;;4937661;29;19933;-61
2022/06/12 11:24:24;;;;;;;;;;;28.20;45.00;;;;;;4936863;29;20009;-60
2022/06/12 11:27:08;;;;;;;;;;;28.10;45.00;;;;;;4937957;29;20319;-60
2022/06/12 11:29:53;;;;;;;;;;;28.10;45.60;;;;;;4936451;29;19917;-60
2022/06/12 11:32:30;;;;;;;;;;;28.10;46.20;;;;;;4937450;29;19929;-61
2022/06/12 11:35:05;;;;;;;;;;;28.20;46.70;;;;;;4937627;29;19974;-60
2022/06/12 11:37:48;;;;;;;;;;;28.20;46.40;;;;;;4937406;29;20334;-61
2022/06/12 11:40:32;;;;;;;;;;;28.10;46.60;;;;;;4937299;29;19911;-61
2022/06/12 11:43:16;;;;;;;;;;;28.20;47.20;;;;;;4937260;29;19958;-61
2022/06/12 11:45:52;;;;;;;;;;;28.20;46.60;;;;;;4937531;29;20263;-60
2022/06/12 11:48:17;;;;;;;;;;;28.20;45.60;;;;;;4937417;29;19943;-59
2022/06/12 11:50:49;;;;;;;;;;;28.20;44.30;;;;;;4937234;29;19911;-60
2022/06/12 11:53:23;;;;;;;;;;;28.20;44.80;;;;;;4937457;29;19919;-61
2022/06/12 11:55:52;;;;;;;;;;;28.20;46.00;;;;;;4937029;29;19915;-60
2022/06/12 11:58:24;;;;;;;;;;;28.30;45.70;;;;;;4937203;29;19939;-62
2022/06/12 12:00:59;;;;;;;;;;;28.30;44.90;;;;;;4937077;29;19915;-61
2022/06/12 12:03:47;;;;;;;;;;;28.20;45.40;;;;;;4937214;29;19918;-61
2022/06/12 12:06:13;;;;;;;;;;;28.20;46.00;;;;;;4938002;29;20340;-61
2022/06/12 12:08:48;;;;;;;;;;;28.30;46.10;;;;;;4943267;29;20067;-62
2022/06/12 12:11:17;;;;;;;;;;;28.30;45.70;;;;;;4937920;29;19914;-60
2022/06/12 12:13:48;;;;;;;;;;;28.30;44.80;;;;;;4937071;29;19962;-61
2022/06/12 12:16:29;;;;;;;;;;;28.30;45.10;;;;;;4937003;29;20389;-59
2022/06/12 12:19:13;;;;;;;;;;;28.30;45.00;;;;;;4936795;29;20398;-59
2022/06/12 12:21:41;;;;;;;;;;;28.30;45.40;;;;;;4936462;29;19934;-61
2022/06/12 12:24:12;;;;;;;;;;;28.30;46.50;;;;;;4936818;29;19926;-61
2022/06/12 12:26:39;;;;;;;;;;;28.30;45.50;;;;;;4936645;29;20006;-60
2022/06/12 12:29:12;;;;;;;;;;;28.30;44.60;;;;;;4936800;29;20374;-61
2022/06/12 12:31:38;;;;;;;;;;;28.30;44.30;;;;;;4936629;29;19915;-61
2022/06/12 12:34:06;;;;;;;;;;;28.20;44.70;;;;;;4936609;29;19979;-61
2022/06/12 12:42:27;;;;;;;;;;;28.30;44.50;;;;;;4936413;29;19918;-61
2022/06/12 12:44:53;;;;;;;;;;;28.30;45.50;;;;;;4936337;29;19998;-60
2022/06/12 12:47:20;;;;;;;;;;;28.20;43.70;;;;;;4936646;29;19958;-61
2022/06/12 12:49:46;;;;;;;;;;;28.20;44.30;;;;;;4935019;29;19917;-61
2022/06/12 12:52:14;;;;;;;;;;;28.20;44.10;;;;;;4936298;29;19926;-61
2022/06/12 12:54:43;;;;;;;;;;;28.20;44.70;;;;;;4936640;29;20042;-60
2022/06/12 12:57:09;;;;;;;;;;;28.30;44.20;;;;;;4936506;29;19911;-62
2022/06/12 12:59:52;;;;;;;;;;;28.20;44.40;;;;;;4936215;29;20017;-60
2022/06/12 13:02:28;;;;;;;;;;;28.30;45.40;;;;;;4936444;29;20075;-61
2022/06/12 13:04:56;;;;;;;;;;;28.30;44.90;;;;;;4936191;29;19915;-62
2022/06/12 13:07:35;;;;;;;;;;;28.20;44.30;;;;;;4934954;29;20072;-61
2022/06/12 13:10:21;;;;;;;;;;;28.30;43.30;;;;;;4936354;29;19938;-61
2022/06/12 13:12:50;;;;;;;;;;;28.20;43.30;;;;;;4935920;29;19923;-60
2022/06/12 13:15:35;;;;;;;;;;;28.20;43.10;;;;;;4936485;29;19919;-61
2022/06/12 13:18:08;;;;;;;;;;;28.10;43.30;;;;;;4936101;29;20279;-60
2022/06/12 13:20:52;;;;;;;;;;;28.10;44.80;;;;;;4935986;29;19926;-61
2022/06/12 13:23:40;;;;;;;;;;;28.20;44.30;;;;;;4934835;29;19911;-62
2022/06/12 13:26:08;;;;;;;;;;;28.20;44.40;;;;;;4936153;29;19917;-60
2022/06/12 13:28:35;;;;;;;;;;;28.20;43.90;;;;;;4936224;29;20359;-61
2022/06/12 13:31:02;;;;;;;;;;;28.20;43.90;;;;;;4936119;29;19914;-61
2022/06/12 13:33:28;;;;;;;;;;;28.20;44.30;;;;;;4936390;29;19958;-61
2022/06/12 13:35:57;;;;;;;;;;;28.20;43.70;;;;;;4935997;29;19934;-61
2022/06/12 13:38:25;;;;;;;;;;;28.20;43.90;;;;;;4936048;29;20013;-60
2022/06/12 13:40:54;;;;;;;;;;;28.20;43.70;;;;;;4936251;29;19915;-61
2022/06/12 13:43:22;;;;;;;;;;;28.20;43.90;;;;;;4936058;29;19911;-61
2022/06/12 13:45:53;;;;;;;;;;;28.20;43.90;;;;;;4935989;29;19911;-60
2022/06/12 13:48:20;;;;;;;;;;;28.30;43.40;;;;;;4938654;29;19914;-60
2022/06/12 13:50:50;;;;;;;;;;;28.30;43.50;;;;;;4939648;29;19915;-61
2022/06/12 13:53:17;;;;;;;;;;;28.30;42.50;;;;;;4939474;29;19919;-60
2022/06/12 13:55:46;;;;;;;;;;;28.20;41.60;;;;;;4939433;29;19918;-60
2022/06/12 13:58:19;;;;;;;;;;;28.20;41.00;;;;;;4939298;29;20010;-60
2022/06/12 14:00:49;;;;;;;;;;;28.20;41.50;;;;;;4939578;29;19917;-61
2022/06/12 14:03:34;;;;;;;;;;;28.20;42.10;;;;;;4939252;29;19915;-60
2022/06/12 14:06:07;;;;;;;;;;;28.30;42.20;;;;;;4939455;29;19911;-60
2022/06/12 14:08:35;;;;;;;;;;;28.30;41.80;;;;;;4939219;29;19950;-60
2022/06/12 14:11:01;;;;;;;;;;;28.30;42.30;;;;;;4939631;29;19911;-61
2022/06/12 14:13:26;;;;;;;;;;;28.20;42.60;;;;;;4939980;29;20001;-60
2022/06/12 14:15:52;;;;;;;;;;;28.20;41.90;;;;;;4940469;29;19954;-61
2022/06/12 14:18:25;;;;;;;;;;;28.20;41.40;;;;;;4939074;29;20013;-61
2022/06/12 14:21:17;;;;;;;;;;;28.20;41.30;;;;;;4938587;29;19926;-60
2022/06/12 14:23:47;;;;;;;;;;;28.20;41.50;;;;;;4916236;29;19911;-63
2022/06/12 14:26:23;;;;;;;;;;;28.20;41.50;;;;;;4938977;29;20006;-60
2022/06/12 14:28:49;;;;;;;;;;;28.20;41.00;;;;;;4938467;29;19915;-60
2022/06/12 14:31:18;;;;;;;;;;;28.20;40.30;;;;;;4938609;29;19922;-62
2022/06/12 14:33:43;;;;;;;;;;;28.10;42.80;;;;;;4938509;29;19916;-63
2022/06/12 14:36:23;;;;;;;;;;;28.00;42.80;;;;;;4938239;29;19914;-62
2022/06/12 14:38:49;;;;;;;;;;;28.10;41.60;;;;;;4928310;29;19915;-65
2022/06/12 14:41:26;;;;;;;;;;;28.00;43.00;;;;;;4929096;29;19970;-61
2022/06/12 14:43:52;;;;;;;;;;;28.00;43.00;;;;;;4928576;29;19915;-61
2022/06/12 14:46:20;;;;;;;;;;;28.00;43.50;;;;;;4930238;29;19912;-61
2022/06/12 14:48:45;;;;;;;;;;;28.10;43.90;;;;;;4926666;29;19924;-62
2022/06/12 14:51:11;;;;;;;;;;;28.00;44.10;;;;;;4929211;29;19911;-62
2022/06/12 14:53:37;;;;;;;;;;;28.00;43.50;;;;;;4927593;29;20009;-62
2022/06/12 14:56:06;;;;;;;;;;;28.10;43.70;;;;;;4929114;29;20024;-62